Time;durP1;ratioP1;P1;durP2;ratioP2;P2;SDS_P1;SDS_P2;PMS_P1;PMS_P2;Temp;Humidity;BMP_temperature;BMP_pressure;BME280_temperature;BME280_humidity;BME280_pressure;Samples;Min_cycle;Max_cycle;Signal;HPM_P1;HPM_P2
2021/09/12 00:01:23;;;;;;;9.32;5.95;;;17.00;99.90;;;;;;5094678;28;20030;-68
2021/09/12 00:03:49;;;;;;;7.72;5.70;;;17.00;99.90;;;;;;5094873;28;20028;-68
2021/09/12 00:06:14;;;;;;;10.45;5.90;;;16.90;99.90;;;;;;5093493;28;20048;-68
2021/09/12 00:08:40;;;;;;;8.77;6.18;;;16.90;99.90;;;;;;5095151;28;20028;-68
2021/09/12 00:11:06;;;;;;;11.75;6.35;;;16.80;99.90;;;;;;5076698;28;20225;-68
2021/09/12 00:13:32;;;;;;;9.43;6.22;;;16.80;99.90;;;;;;5095001;28;20097;-68
2021/09/12 00:15:58;;;;;;;10.35;7.18;;;16.80;99.90;;;;;;5094572;28;20076;-68
2021/09/12 00:18:24;;;;;;;8.90;5.57;;;16.90;99.90;;;;;;5094706;28;20039;-68
2021/09/12 00:20:49;;;;;;;8.95;6.20;;;16.90;99.90;;;;;;5094812;28;20038;-68
2021/09/12 00:23:15;;;;;;;9.52;6.65;;;16.80;99.90;;;;;;5110187;28;20119;-68
2021/09/12 00:25:42;;;;;;;14.50;7.30;;;16.80;99.90;;;;;;5094562;28;20111;-68
2021/09/12 00:28:08;;;;;;;17.00;8.77;;;16.60;99.90;;;;;;5093004;28;20526;-68
2021/09/12 00:30:34;;;;;;;15.35;7.72;;;16.40;99.90;;;;;;5092592;28;20129;-68
2021/09/12 00:32:59;;;;;;;9.82;5.95;;;16.30;99.90;;;;;;5094012;28;20031;-68
2021/09/12 00:35:25;;;;;;;12.82;6.38;;;16.40;99.90;;;;;;5094641;28;20081;-68
2021/09/12 00:37:51;;;;;;;12.55;6.35;;;16.40;99.90;;;;;;5092872;28;20032;-68
2021/09/12 00:40:20;;;;;;;8.15;5.78;;;16.30;99.90;;;;;;5094587;28;20532;-68
2021/09/12 00:42:47;;;;;;;9.65;5.75;;;16.30;99.90;;;;;;5094319;28;20036;-68
2021/09/12 00:45:13;;;;;;;8.60;5.55;;;16.30;99.90;;;;;;5093277;28;20097;-68
2021/09/12 00:47:39;;;;;;;9.73;5.35;;;16.30;99.90;;;;;;5094192;28;20032;-68
2021/09/12 00:50:06;;;;;;;7.85;5.15;;;16.30;99.90;;;;;;5093022;28;20027;-68
2021/09/12 00:52:34;;;;;;;10.65;6.10;;;16.30;99.90;;;;;;5092572;28;20368;-68
2021/09/12 00:55:01;;;;;;;9.70;5.80;;;16.20;99.90;;;;;;5093698;28;20035;-68
2021/09/12 00:57:27;;;;;;;12.68;6.70;;;16.20;99.90;;;;;;5092732;28;20048;-68
2021/09/12 00:59:54;;;;;;;8.85;6.20;;;16.10;99.90;;;;;;5093795;28;20377;-68
2021/09/12 01:02:20;;;;;;;11.45;7.32;;;16.10;99.90;;;;;;5092787;28;20036;-68
2021/09/12 01:04:46;;;;;;;12.27;7.40;;;16.10;99.90;;;;;;5093749;28;20035;-68
2021/09/12 01:07:13;;;;;;;10.77;7.13;;;16.10;99.90;;;;;;5093978;28;20381;-68
2021/09/12 01:09:40;;;;;;;10.63;6.88;;;16.00;99.90;;;;;;5092391;28;20458;-68
2021/09/12 01:12:08;;;;;;;9.60;6.72;;;16.00;99.90;;;;;;5092259;28;20065;-68
2021/09/12 01:14:34;;;;;;;11.55;7.05;;;16.00;99.90;;;;;;5093697;28;20526;-68
2021/09/12 01:17:01;;;;;;;11.75;7.85;;;16.00;99.90;;;;;;5074998;28;20048;-68
2021/09/12 01:19:28;;;;;;;12.75;8.38;;;15.90;99.90;;;;;;5093786;28;20097;-68
2021/09/12 01:22:04;;;;;;;13.73;8.85;;;16.00;99.90;;;;;;5092476;28;20465;-68
2021/09/12 01:24:31;;;;;;;15.38;8.95;;;16.00;99.90;;;;;;5092285;28;20064;-68
2021/09/12 01:26:57;;;;;;;18.98;11.65;;;16.00;99.90;;;;;;5091930;28;20039;-68
2021/09/12 01:29:23;;;;;;;22.77;13.77;;;15.70;99.90;;;;;;5093259;28;20039;-68
2021/09/12 01:31:49;;;;;;;27.80;13.70;;;15.60;99.90;;;;;;5092138;28;20481;-68
2021/09/12 01:34:15;;;;;;;27.25;12.93;;;15.50;99.90;;;;;;5093091;28;20028;-68
2021/09/12 01:36:42;;;;;;;25.02;12.85;;;15.50;99.90;;;;;;5093202;28;20562;-68
2021/09/12 01:39:08;;;;;;;32.17;13.82;;;15.50;99.90;;;;;;5092004;28;20036;-68
2021/09/12 01:41:34;;;;;;;22.20;12.82;;;15.30;99.90;;;;;;5091759;28;20024;-68
2021/09/12 01:44:04;;;;;;;24.00;12.82;;;15.30;99.90;;;;;;5092895;28;20024;-68
2021/09/12 01:46:30;;;;;;;21.52;12.43;;;15.30;99.90;;;;;;5091910;28;20035;-68
2021/09/12 01:49:01;;;;;;;18.23;11.75;;;15.30;99.90;;;;;;5091781;28;20040;-68
2021/09/12 01:51:26;;;;;;;22.83;13.43;;;15.30;99.90;;;;;;5075297;28;20032;-68
2021/09/12 01:53:52;;;;;;;25.77;13.25;;;15.30;99.90;;;;;;5092907;28;20086;-68
2021/09/12 01:56:18;;;;;;;21.70;12.10;;;15.40;99.90;;;;;;5091928;28;20109;-68
2021/09/12 01:58:44;;;;;;;25.23;12.05;;;15.50;99.90;;;;;;5093029;28;20028;-68
2021/09/12 02:01:09;;;;;;;19.60;11.50;;;15.60;99.90;;;;;;5092673;28;20031;-68
2021/09/12 02:03:35;;;;;;;19.52;10.85;;;15.60;99.90;;;;;;5093055;28;20080;-68
2021/09/12 02:06:01;;;;;;;23.55;12.20;;;15.60;99.90;;;;;;5092834;28;20051;-68
2021/09/12 02:08:28;;;;;;;24.25;10.73;;;15.60;99.90;;;;;;5091344;28;20040;-68
2021/09/12 02:10:53;;;;;;;21.45;9.07;;;15.60;99.90;;;;;;5091281;28;20027;-68
2021/09/12 02:13:19;;;;;;;25.75;8.95;;;15.60;99.90;;;;;;5091523;28;20076;-68
2021/09/12 02:15:45;;;;;;;23.23;10.20;;;15.40;99.90;;;;;;5091218;28;20128;-68
2021/09/12 02:18:12;;;;;;;24.60;10.55;;;15.30;99.90;;;;;;5091300;28;20062;-68
2021/09/12 02:20:38;;;;;;;35.22;11.13;;;15.10;99.90;;;;;;5091343;28;20468;-68
2021/09/12 02:23:05;;;;;;;42.25;11.30;;;15.10;99.90;;;;;;5092537;28;20032;-67
2021/09/12 02:25:34;;;;;;;68.30;12.18;;;15.00;99.90;;;;;;5092768;28;20028;-68
2021/09/12 02:28:00;;;;;;;30.38;11.35;;;14.90;99.90;;;;;;5091132;28;20036;-68
2021/09/12 02:30:26;;;;;;;46.85;12.20;;;14.90;99.90;;;;;;5092447;28;20032;-68
2021/09/12 02:32:52;;;;;;;31.05;11.88;;;14.90;99.90;;;;;;5091270;28;20062;-68
2021/09/12 02:35:18;;;;;;;55.63;14.10;;;14.80;99.90;;;;;;5092411;28;20032;-68
2021/09/12 02:37:43;;;;;;;35.22;12.70;;;14.80;99.90;;;;;;5092253;28;20082;-68
2021/09/12 02:40:10;;;;;;;31.45;13.07;;;14.80;99.90;;;;;;5090872;28;20042;-68
2021/09/12 02:42:38;;;;;;;28.30;12.88;;;14.80;99.90;;;;;;5092394;28;20110;-68
2021/09/12 02:45:08;;;;;;;24.10;12.80;;;14.80;99.90;;;;;;5092310;28;20028;-68
2021/09/12 02:47:35;;;;;;;17.53;11.07;;;14.80;99.90;;;;;;5092424;28;20039;-68
2021/09/12 02:50:01;;;;;;;22.20;12.38;;;14.90;99.90;;;;;;5090779;28;20282;-68
2021/09/12 02:52:27;;;;;;;21.65;11.60;;;14.80;99.90;;;;;;5093341;28;20046;-67
2021/09/12 02:54:53;;;;;;;39.78;12.07;;;14.80;99.90;;;;;;5094902;28;20111;-67
2021/09/12 02:57:18;;;;;;;42.88;12.15;;;14.70;99.90;;;;;;5095145;28;20096;-68
2021/09/12 02:59:44;;;;;;;30.17;12.52;;;14.60;99.90;;;;;;5096139;28;20032;-68
2021/09/12 03:02:10;;;;;;;49.30;12.80;;;14.60;99.90;;;;;;5094789;28;20032;-67
2021/09/12 03:04:36;;;;;;;59.10;12.23;;;14.60;99.90;;;;;;5096459;28;20495;-68
2021/09/12 03:07:02;;;;;;;61.28;13.48;;;14.60;99.90;;;;;;5095958;28;20153;-67
2021/09/12 03:09:27;;;;;;;68.80;12.27;;;14.50;99.90;;;;;;5094803;28;20116;-67
2021/09/12 03:11:53;;;;;;;83.10;11.82;;;14.60;99.90;;;;;;5096164;28;20020;-67
2021/09/12 03:14:20;;;;;;;39.67;13.23;;;14.60;99.90;;;;;;5094464;28;20042;-67
2021/09/12 03:16:48;;;;;;;42.17;12.93;;;14.60;99.90;;;;;;5094546;28;20512;-67
2021/09/12 03:19:15;;;;;;;32.10;11.63;;;14.70;99.90;;;;;;5094498;28;20051;-67
2021/09/12 03:21:42;;;;;;;57.00;10.80;;;14.60;99.90;;;;;;5094906;28;20535;-67
2021/09/12 03:24:07;;;;;;;54.05;11.43;;;14.60;99.90;;;;;;5095630;28;20374;-67
2021/09/12 03:26:33;;;;;;;49.33;11.45;;;14.60;99.90;;;;;;5095640;28;20085;-68
2021/09/12 03:28:59;;;;;;;30.30;10.75;;;14.60;99.90;;;;;;5095776;28;20058;-67
2021/09/12 03:31:25;;;;;;;47.45;11.80;;;14.70;99.90;;;;;;5095896;28;20051;-68
2021/09/12 03:33:50;;;;;;;49.10;11.18;;;14.60;99.90;;;;;;5060945;28;20548;-68
2021/09/12 03:36:16;;;;;;;75.53;11.15;;;14.70;99.90;;;;;;5095419;28;20233;-67
2021/09/12 03:38:42;;;;;;;40.28;12.40;;;14.60;99.90;;;;;;5095487;28;20032;-67
2021/09/12 03:41:08;;;;;;;57.58;13.25;;;14.60;99.90;;;;;;5095221;28;20059;-67
2021/09/12 03:43:33;;;;;;;62.33;13.30;;;14.50;99.90;;;;;;5095687;28;20472;-67
2021/09/12 03:45:59;;;;;;;57.05;13.00;;;14.50;99.90;;;;;;5077029;28;20032;-67
2021/09/12 03:48:25;;;;;;;81.60;13.32;;;14.50;99.90;;;;;;5095544;28;20335;-68
2021/09/12 03:50:51;;;;;;;49.70;12.45;;;14.40;99.90;;;;;;5094239;28;20051;-68
2021/09/12 03:53:17;;;;;;;86.78;15.48;;;14.50;99.90;;;;;;5077006;28;20107;-67
2021/09/12 03:55:43;;;;;;;46.15;11.55;;;14.40;99.90;;;;;;5095396;28;20039;-67
2021/09/12 03:58:09;;;;;;;40.15;12.82;;;14.40;99.90;;;;;;5095135;28;20032;-67
2021/09/12 04:00:35;;;;;;;47.28;13.68;;;14.50;99.90;;;;;;5095038;28;20099;-68
2021/09/12 04:03:01;;;;;;;78.32;13.95;;;14.50;99.90;;;;;;5093473;28;20361;-68
2021/09/12 04:05:27;;;;;;;58.80;12.57;;;14.50;99.90;;;;;;5093975;28;20089;-67
2021/09/12 04:07:53;;;;;;;62.10;15.15;;;14.50;99.90;;;;;;5076713;28;20043;-67
2021/09/12 04:10:19;;;;;;;42.72;12.82;;;14.40;99.90;;;;;;5094830;28;20024;-68
2021/09/12 04:12:44;;;;;;;56.05;14.95;;;14.50;99.90;;;;;;5094841;28;20058;-68
2021/09/12 04:15:10;;;;;;;73.65;14.18;;;14.50;99.90;;;;;;5093237;28;20056;-68
2021/09/12 04:17:36;;;;;;;63.67;14.55;;;14.50;99.90;;;;;;5076646;28;20028;-68
2021/09/12 04:20:04;;;;;;;116.97;17.00;;;14.50;99.90;;;;;;5093581;28;20035;-68
2021/09/12 04:22:30;;;;;;;111.80;15.75;;;14.50;99.90;;;;;;5076407;28;20028;-68
2021/09/12 04:24:56;;;;;;;100.32;18.17;;;14.50;99.90;;;;;;5093888;28;20438;-68
2021/09/12 04:27:22;;;;;;;75.93;17.13;;;14.50;99.90;;;;;;5094762;28;20456;-67
2021/09/12 04:29:48;;;;;;;60.83;17.73;;;14.60;99.90;;;;;;5094390;28;20058;-68
2021/09/12 04:32:14;;;;;;;58.90;16.77;;;14.60;99.90;;;;;;5093115;28;20073;-67
2021/09/12 04:34:39;;;;;;;89.38;18.50;;;14.70;99.90;;;;;;5076428;28;20028;-67
2021/09/12 04:37:06;;;;;;;73.85;18.58;;;14.70;99.90;;;;;;5094203;28;20035;-68
2021/09/12 04:39:32;;;;;;;119.28;20.63;;;14.70;99.90;;;;;;5093147;28;20434;-68
2021/09/12 04:41:57;;;;;;;83.25;18.08;;;14.70;99.90;;;;;;5094525;28;20028;-67
2021/09/12 04:44:23;;;;;;;129.85;20.52;;;14.70;99.90;;;;;;5094530;28;20162;-67
2021/09/12 04:46:49;;;;;;;100.70;19.58;;;14.50;99.90;;;;;;5094499;28;20039;-67
2021/09/12 04:49:14;;;;;;;59.50;18.63;;;14.50;99.90;;;;;;5092809;28;20031;-67
2021/09/12 04:51:40;;;;;;;128.73;20.92;;;14.50;99.90;;;;;;5094406;28;20563;-67
2021/09/12 04:54:06;;;;;;;61.88;19.90;;;14.40;99.90;;;;;;5093955;28;20042;-67
2021/09/12 04:56:32;;;;;;;127.05;20.05;;;14.40;99.90;;;;;;5094110;28;20492;-68
2021/09/12 04:58:57;;;;;;;78.88;18.77;;;14.60;99.90;;;;;;5093956;28;20095;-68
2021/09/12 05:01:23;;;;;;;52.47;19.52;;;14.70;99.90;;;;;;5092949;28;20024;-67
2021/09/12 05:03:51;;;;;;;75.07;19.05;;;14.70;99.90;;;;;;5094141;28;20031;-67
2021/09/12 05:06:16;;;;;;;78.97;21.08;;;14.70;99.90;;;;;;5092331;28;20481;-67
2021/09/12 05:08:42;;;;;;;74.60;18.95;;;14.60;99.90;;;;;;5093869;28;20051;-67
2021/09/12 05:11:08;;;;;;;102.68;16.83;;;14.60;99.90;;;;;;5092517;28;20077;-67
2021/09/12 05:13:36;;;;;;;45.83;16.55;;;14.70;99.90;;;;;;5093781;28;20028;-67
2021/09/12 05:16:03;;;;;;;90.30;18.63;;;14.60;99.90;;;;;;5074975;28;20044;-67
2021/09/12 05:18:28;;;;;;;77.60;18.58;;;14.50;99.90;;;;;;5092569;28;20032;-67
2021/09/12 05:20:54;;;;;;;36.15;15.98;;;14.60;99.90;;;;;;5093833;28;20426;-67
2021/09/12 05:23:20;;;;;;;47.63;16.45;;;14.60;99.90;;;;;;5093385;28;20031;-67
2021/09/12 05:25:46;;;;;;;72.93;18.30;;;14.50;99.90;;;;;;5092264;28;20477;-67
2021/09/12 05:28:12;;;;;;;83.10;17.85;;;14.50;99.90;;;;;;5092312;28;20473;-68
2021/09/12 05:30:38;;;;;;;70.18;19.02;;;14.50;99.90;;;;;;5093362;28;20031;-67
2021/09/12 05:33:04;;;;;;;54.42;18.65;;;14.50;99.90;;;;;;5093299;28;20114;-67
2021/09/12 05:35:30;;;;;;;56.17;20.33;;;14.60;99.90;;;;;;5093251;28;20043;-67
2021/09/12 05:37:56;;;;;;;63.25;18.33;;;14.70;99.90;;;;;;5075310;28;20032;-67
2021/09/12 05:40:22;;;;;;;50.65;17.77;;;14.60;99.90;;;;;;5093344;28;20077;-67
2021/09/12 05:42:47;;;;;;;55.55;17.90;;;14.60;99.90;;;;;;5093098;28;20090;-67
2021/09/12 05:45:13;;;;;;;71.30;17.77;;;14.60;99.90;;;;;;5092963;28;20067;-67
2021/09/12 05:47:39;;;;;;;39.65;18.25;;;14.50;99.90;;;;;;5093090;28;20459;-67
2021/09/12 05:50:06;;;;;;;33.88;16.00;;;14.60;99.90;;;;;;5092893;28;20055;-67
2021/09/12 05:52:32;;;;;;;47.22;16.65;;;14.60;99.90;;;;;;5091508;28;20032;-67
2021/09/12 05:54:57;;;;;;;57.47;16.52;;;14.70;99.90;;;;;;5092890;28;20036;-67
2021/09/12 05:57:23;;;;;;;46.47;15.82;;;14.60;99.90;;;;;;5091382;28;20054;-67
2021/09/12 05:59:49;;;;;;;76.30;18.15;;;14.50;99.90;;;;;;5091866;28;20036;-68
2021/09/12 06:02:16;;;;;;;60.25;16.98;;;14.30;99.90;;;;;;5092607;28;20537;-68
2021/09/12 06:04:43;;;;;;;45.53;16.98;;;14.50;99.90;;;;;;5091589;28;20032;-68
2021/09/12 06:07:09;;;;;;;60.97;15.38;;;14.40;99.90;;;;;;5092462;28;20020;-68
2021/09/12 06:09:35;;;;;;;52.70;14.73;;;14.60;99.90;;;;;;5091362;28;20078;-68
2021/09/12 06:12:01;;;;;;;79.80;15.43;;;14.40;99.90;;;;;;5092794;28;20059;-68
2021/09/12 06:14:27;;;;;;;60.03;15.00;;;14.50;99.90;;;;;;5092774;28;20067;-68
2021/09/12 06:16:53;;;;;;;55.72;16.85;;;14.50;99.90;;;;;;5092300;28;20055;-68
2021/09/12 06:19:18;;;;;;;36.53;15.95;;;14.60;99.90;;;;;;5092522;28;20111;-68
2021/09/12 06:21:44;;;;;;;38.63;15.80;;;14.60;99.90;;;;;;5091149;28;20035;-68
2021/09/12 06:24:10;;;;;;;41.42;18.77;;;14.80;99.90;;;;;;5091339;28;20036;-68
2021/09/12 06:26:35;;;;;;;55.97;30.50;;;14.80;99.90;;;;;;5090653;28;20113;-68
2021/09/12 06:29:01;;;;;;;29.15;15.77;;;14.70;99.90;;;;;;5092377;28;20031;-68
2021/09/12 06:31:27;;;;;;;26.42;14.63;;;14.70;99.90;;;;;;5090993;28;20446;-68
2021/09/12 06:33:54;;;;;;;40.20;15.25;;;14.70;99.90;;;;;;5092187;28;20035;-68
2021/09/12 06:36:19;;;;;;;42.15;13.00;;;14.90;99.90;;;;;;5092244;28;20058;-71
2021/09/12 06:38:46;;;;;;;21.65;11.40;;;14.90;99.90;;;;;;5090884;28;20036;-76
2021/09/12 06:41:12;;;;;;;19.23;11.18;;;15.00;99.90;;;;;;5074036;28;20020;-70
2021/09/12 06:43:38;;;;;;;19.13;10.27;;;15.10;99.90;;;;;;5082643;28;20119;-72
2021/09/12 06:46:04;;;;;;;19.35;10.68;;;14.80;99.90;;;;;;5079536;28;20091;-74
2021/09/12 06:48:30;;;;;;;30.23;11.55;;;14.70;99.90;;;;;;5071599;28;20033;-72
2021/09/12 06:50:57;;;;;;;18.42;10.63;;;14.60;99.90;;;;;;5074397;28;20120;-72
2021/09/12 06:53:26;;;;;;;16.17;10.63;;;14.60;99.90;;;;;;5071540;28;20516;-71
2021/09/12 06:55:52;;;;;;;19.45;11.32;;;14.80;99.90;;;;;;5070842;28;20535;-71
2021/09/12 06:58:18;;;;;;;18.10;10.45;;;14.70;99.90;;;;;;5070281;28;20041;-71
2021/09/12 07:00:44;;;;;;;18.70;11.82;;;14.70;99.90;;;;;;5071901;28;20099;-71
2021/09/12 07:03:10;;;;;;;15.82;10.35;;;14.70;99.90;;;;;;5071674;28;20039;-71
2021/09/12 07:05:36;;;;;;;16.27;11.35;;;14.80;99.90;;;;;;5070617;28;20036;-71
2021/09/12 07:08:03;;;;;;;17.15;10.60;;;14.90;99.90;;;;;;5071621;28;20056;-71
2021/09/12 07:10:28;;;;;;;16.77;10.90;;;14.90;99.90;;;;;;5071863;28;20036;-72
2021/09/12 07:12:54;;;;;;;16.73;10.00;;;15.10;99.90;;;;;;5075960;28;20446;-72
2021/09/12 07:15:20;;;;;;;28.45;9.82;;;15.30;99.90;;;;;;5091777;28;20445;-71
2021/09/12 07:17:46;;;;;;;16.10;9.52;;;15.40;99.90;;;;;;5091962;28;20028;-72
2021/09/12 07:20:12;;;;;;;17.10;10.45;;;15.40;99.90;;;;;;5091934;28;20381;-71
2021/09/12 07:22:38;;;;;;;11.77;9.00;;;15.40;99.90;;;;;;5091787;28;20054;-72
2021/09/12 07:25:05;;;;;;;16.10;10.82;;;15.10;99.90;;;;;;5073834;28;20540;-73
2021/09/12 07:27:31;;;;;;;15.18;8.98;;;15.30;99.90;;;;;;5073587;28;20093;-72
2021/09/12 07:29:58;;;;;;;14.98;10.38;;;15.30;99.90;;;;;;5091795;28;20057;-73
2021/09/12 07:32:23;;;;;;;12.27;9.35;;;15.30;99.90;;;;;;5090477;28;20024;-73
2021/09/12 07:34:49;;;;;;;19.67;11.57;;;15.30;99.90;;;;;;5079122;28;20102;-72
2021/09/12 07:37:15;;;;;;;16.25;10.80;;;15.40;99.90;;;;;;5053500;28;20466;-72
2021/09/12 07:39:41;;;;;;;16.45;9.65;;;15.80;99.90;;;;;;5073343;28;20037;-72
2021/09/12 07:42:07;;;;;;;13.50;9.60;;;15.80;99.90;;;;;;5075456;28;20078;-72
2021/09/12 07:44:32;;;;;;;11.57;8.55;;;15.90;99.90;;;;;;5073755;28;20512;-69
2021/09/12 07:46:58;;;;;;;13.77;9.00;;;16.10;99.90;;;;;;5075408;28;20420;-71
2021/09/12 07:49:24;;;;;;;15.18;8.48;;;16.30;99.90;;;;;;5073459;28;20039;-71
2021/09/12 07:51:50;;;;;;;11.20;8.23;;;16.50;99.90;;;;;;5075203;28;20040;-71
2021/09/12 07:54:15;;;;;;;15.10;9.52;;;16.50;99.90;;;;;;5074836;28;20064;-71
2021/09/12 07:56:41;;;;;;;13.40;10.10;;;16.20;99.90;;;;;;5073721;28;20032;-71
2021/09/12 07:59:07;;;;;;;16.23;9.80;;;16.20;99.90;;;;;;5073612;28;20032;-71
2021/09/12 08:01:33;;;;;;;11.98;9.07;;;16.20;99.90;;;;;;5074927;28;20493;-71
2021/09/12 08:03:59;;;;;;;15.05;10.13;;;16.20;99.90;;;;;;5075074;28;20036;-71
2021/09/12 08:06:24;;;;;;;14.90;10.50;;;16.10;99.90;;;;;;5074677;28;20036;-70
2021/09/12 08:08:50;;;;;;;16.40;10.57;;;16.10;99.90;;;;;;5073424;28;20389;-72
2021/09/12 08:11:16;;;;;;;14.20;9.10;;;16.40;99.90;;;;;;5073315;28;20032;-70
2021/09/12 08:13:42;;;;;;;15.50;10.73;;;16.50;99.90;;;;;;5073272;28;20035;-71
2021/09/12 08:16:08;;;;;;;14.20;10.20;;;16.80;99.90;;;;;;5074349;28;20452;-71
2021/09/12 08:18:35;;;;;;;13.68;9.68;;;17.00;99.90;;;;;;5074135;28;20131;-70
2021/09/12 08:21:01;;;;;;;12.27;9.23;;;17.00;99.90;;;;;;5073850;28;20020;-71
2021/09/12 08:23:27;;;;;;;14.20;8.52;;;16.90;99.90;;;;;;5074394;28;20044;-76
2021/09/12 08:25:54;;;;;;;14.80;9.25;;;17.20;99.90;;;;;;5073255;28;20027;-75
2021/09/12 08:28:20;;;;;;;16.95;9.75;;;17.00;99.90;;;;;;5073089;28;20055;-75
2021/09/12 08:30:46;;;;;;;12.48;9.15;;;17.10;99.90;;;;;;5072846;28;20056;-75
2021/09/12 08:33:14;;;;;;;12.70;9.68;;;17.20;99.90;;;;;;5073038;28;20036;-71
2021/09/12 08:35:42;;;;;;;11.40;9.15;;;17.30;99.90;;;;;;5073960;28;20031;-71
2021/09/12 08:38:09;;;;;;;13.55;9.85;;;17.40;99.90;;;;;;5074004;28;20496;-72
2021/09/12 08:40:35;;;;;;;13.38;8.65;;;17.50;99.90;;;;;;5072801;28;20524;-74
2021/09/12 08:43:02;;;;;;;16.98;8.68;;;17.60;99.90;;;;;;5072500;28;20032;-73
2021/09/12 08:45:28;;;;;;;12.15;8.52;;;17.70;99.90;;;;;;5075055;28;20123;-72
2021/09/12 08:47:55;;;;;;;12.95;8.57;;;17.70;99.90;;;;;;5073816;28;20040;-72
2021/09/12 08:50:22;;;;;;;14.38;8.38;;;17.90;99.90;;;;;;5088476;28;20025;-74
2021/09/12 08:52:48;;;;;;;11.80;7.68;;;18.10;99.90;;;;;;5089509;28;20032;-72
2021/09/12 08:55:14;;;;;;;10.35;8.20;;;18.20;99.90;;;;;;5074024;28;20504;-71
2021/09/12 08:57:52;;;;;;;10.35;7.82;;;18.30;99.90;;;;;;5073812;28;20037;-73
2021/09/12 09:00:25;;;;;;;11.43;7.15;;;18.40;99.90;;;;;;5089271;28;20036;-76
2021/09/12 09:03:04;;;;;;;16.92;8.43;;;18.50;99.90;;;;;;5073916;28;20127;-70
2021/09/12 09:05:42;;;;;;;11.23;7.15;;;18.70;99.90;;;;;;5073513;28;20024;-70
2021/09/12 09:08:09;;;;;;;10.00;7.13;;;18.80;99.90;;;;;;5089358;28;20120;-70
2021/09/12 09:10:49;;;;;;;15.25;7.63;;;18.90;99.90;;;;;;5089296;28;20079;-68
2021/09/12 09:13:35;;;;;;;10.93;6.82;;;19.00;99.90;;;;;;5089017;28;20120;-69
2021/09/12 09:16:04;;;;;;;12.05;6.45;;;19.10;99.90;;;;;;5073256;28;20594;-73
2021/09/12 09:18:41;;;;;;;10.50;7.22;;;19.30;99.90;;;;;;5073072;28;20039;-77
2021/09/12 09:21:51;;;;;;;9.55;6.15;;;19.40;99.90;;;;;;5089189;28;20064;-74
2021/09/12 09:24:29;;;;;;;15.20;7.95;;;19.50;99.90;;;;;;5053236;28;20059;-80
2021/09/12 09:27:03;;;;;;;12.15;7.05;;;19.50;99.90;;;;;;5073262;28;20039;-80
2021/09/12 09:29:35;;;;;;;9.38;5.40;;;19.60;99.90;;;;;;5088462;28;20028;-80
2021/09/12 09:32:13;;;;;;;8.95;5.82;;;19.90;99.90;;;;;;5073173;28;20508;-79
2021/09/12 09:34:43;;;;;;;10.98;6.53;;;20.20;99.90;;;;;;5097018;28;20059;-76
2021/09/12 09:37:13;;;;;;;12.07;6.95;;;20.50;99.90;;;;;;5088862;28;20412;-77
2021/09/12 09:39:51;;;;;;;;;;;20.60;99.90;;;;;;5073223;28;20492;-77
2021/09/12 09:42:37;;;;;;;12.48;7.07;;;20.70;99.90;;;;;;5073218;28;20300;-74
2021/09/12 09:45:10;;;;;;;9.98;5.93;;;20.90;99.90;;;;;;5072989;28;20123;-77
2021/09/12 09:47:37;;;;;;;10.75;6.03;;;20.90;99.90;;;;;;5072894;28;20497;-73
2021/09/12 09:50:19;;;;;;;10.60;5.93;;;21.10;99.90;;;;;;5071640;28;20081;-74
2021/09/12 09:52:53;;;;;;;13.00;6.05;;;21.10;99.90;;;;;;5072536;28;20111;-76
2021/09/12 09:55:25;;;;;;;9.25;5.95;;;21.30;99.90;;;;;;5072746;28;20031;-73
2021/09/12 09:57:56;;;;;;;7.70;5.00;;;21.50;99.90;;;;;;5072269;28;20032;-78
2021/09/12 10:00:24;;;;;;;7.03;3.92;;;21.70;99.90;;;;;;5072705;28;20034;-77
2021/09/12 10:02:50;;;;;;;7.82;3.92;;;21.70;99.90;;;;;;5072747;28;20412;-77
2021/09/12 10:05:17;;;;;;;6.30;3.50;;;21.70;99.90;;;;;;5072235;28;20081;-76
2021/09/12 10:07:43;;;;;;;8.20;4.20;;;21.90;99.90;;;;;;5072586;28;20044;-77
2021/09/12 10:10:12;;;;;;;7.03;3.75;;;22.10;99.90;;;;;;5071075;28;20025;-75
2021/09/12 10:12:52;;;;;;;6.75;4.10;;;22.10;99.90;;;;;;5072280;28;20033;-76
2021/09/12 10:15:23;;;;;;;4.95;3.47;;;22.40;99.90;;;;;;5070842;28;20049;-76
2021/09/12 10:17:50;;;;;;;7.47;3.22;;;22.60;99.90;;;;;;5072514;28;20111;-76
2021/09/12 10:20:22;;;;;;;3.95;2.42;;;22.50;99.90;;;;;;5072155;28;20043;-75
2021/09/12 10:23:11;;;;;;;5.78;3.30;;;22.60;99.90;;;;;;5070609;28;20128;-76
2021/09/12 10:25:49;;;;;;;5.88;3.30;;;22.50;99.90;;;;;;5071106;28;20039;-76
2021/09/12 10:28:31;;;;;;;4.38;2.50;;;22.40;99.90;;;;;;5071796;28;20043;-76
2021/09/12 10:30:58;;;;;;;5.45;3.10;;;22.90;99.90;;;;;;5070795;28;20040;-76
2021/09/12 10:33:26;;;;;;;5.20;3.50;;;23.00;99.90;;;;;;5071954;28;20119;-76
2021/09/12 10:36:03;;;;;;;5.43;3.10;;;22.70;99.90;;;;;;5070829;28;20373;-76
2021/09/12 10:38:34;;;;;;;5.15;3.25;;;23.10;99.90;;;;;;5070731;28;20504;-76
2021/09/12 10:41:00;;;;;;;5.78;3.10;;;23.30;99.90;;;;;;5071675;28;20393;-77
2021/09/12 10:43:25;;;;;;;5.43;2.90;;;23.50;99.90;;;;;;5071768;28;20033;-78
2021/09/12 10:46:03;;;;;;;4.75;2.97;;;23.80;99.90;;;;;;5072290;28;20028;-76
2021/09/12 10:48:34;;;;;;;4.72;3.10;;;24.10;99.10;;;;;;5071765;28;20439;-76
2021/09/12 10:51:04;;;;;;;7.55;3.30;;;23.20;99.00;;;;;;5070629;28;20036;-76
2021/09/12 10:53:48;;;;;;;7.25;2.95;;;22.70;99.90;;;;;;5071894;28;20059;-76
2021/09/12 10:56:17;;;;;;;4.28;3.05;;;23.00;99.90;;;;;;5074352;28;20043;-76
2021/09/12 10:58:49;;;;;;;10.73;6.45;;;22.80;99.70;;;;;;5071833;28;20093;-76
2021/09/12 11:01:38;;;;;;;5.63;2.72;;;22.90;99.90;;;;;;5070564;28;20063;-76
2021/09/12 11:04:04;;;;;;;4.55;2.47;;;23.40;99.00;;;;;;5070670;28;20473;-77
2021/09/12 11:06:34;;;;;;;3.45;2.10;;;23.80;98.80;;;;;;5070713;28;20044;-76
2021/09/12 11:09:15;;;;;;;7.95;2.35;;;23.70;98.70;;;;;;5071770;28;20028;-76
2021/09/12 11:11:41;;;;;;;4.80;2.10;;;24.20;98.50;;;;;;5071566;28;20119;-76
2021/09/12 11:14:08;;;;;;;4.28;2.47;;;24.20;97.90;;;;;;5073575;28;20505;-76
2021/09/12 11:16:34;;;;;;;4.72;2.53;;;24.20;98.30;;;;;;5075331;28;20048;-75
2021/09/12 11:19:05;;;;;;;6.95;2.78;;;24.30;96.70;;;;;;5075550;28;20554;-74
2021/09/12 11:21:44;;;;;;;6.03;2.70;;;24.10;96.70;;;;;;5075424;28;20074;-74
2021/09/12 11:24:21;;;;;;;5.18;2.30;;;24.30;96.30;;;;;;5075756;28;20660;-77
2021/09/12 11:27:05;;;;;;;7.90;2.70;;;24.70;96.40;;;;;;5075717;28;20036;-75
2021/09/12 11:29:34;;;;;;;6.60;3.13;;;24.70;95.90;;;;;;5074030;28;20032;-76
2021/09/12 11:32:17;;;;;;;7.22;3.40;;;24.70;95.50;;;;;;5057611;28;20036;-76
2021/09/12 11:34:46;;;;;;;5.53;2.95;;;24.50;96.20;;;;;;5074252;28;20107;-75
2021/09/12 11:37:14;;;;;;;4.80;2.45;;;24.10;96.30;;;;;;5075451;28;20082;-76
2021/09/12 11:39:47;;;;;;;5.63;2.65;;;24.20;96.10;;;;;;5075052;28;20449;-76
2021/09/12 11:42:17;;;;;;;5.10;2.58;;;24.20;96.80;;;;;;5074983;28;20028;-74
2021/09/12 11:44:46;;;;;;;4.10;2.25;;;24.30;96.20;;;;;;5073622;28;20036;-74
2021/09/12 11:47:16;;;;;;;3.97;2.20;;;24.10;96.70;;;;;;5073514;28;20040;-75
2021/09/12 11:49:45;;;;;;;3.53;1.70;;;24.40;95.90;;;;;;5075393;28;20032;-83
2021/09/12 11:52:12;;;;;;;3.33;1.63;;;24.90;95.70;;;;;;5073954;28;20036;-70
2021/09/12 11:54:38;;;;;;;3.85;1.85;;;25.20;94.90;;;;;;5073579;28;20492;-72
2021/09/12 11:57:08;;;;;;;2.83;1.33;;;24.70;95.10;;;;;;5073762;28;20568;-71
2021/09/12 11:59:46;;;;;;;1.80;0.90;;;25.20;93.40;;;;;;5073618;28;20032;-75
2021/09/12 12:02:21;;;;;;;3.65;1.17;;;25.30;93.10;;;;;;5073470;28;20465;-67
2021/09/12 12:04:47;;;;;;;2.30;1.35;;;26.20;92.20;;;;;;5074687;28;20389;-68
2021/09/12 12:07:14;;;;;;;2.53;0.80;;;26.40;92.10;;;;;;5073584;28;20028;-68
2021/09/12 12:09:48;;;;;;;2.92;1.45;;;27.00;91.30;;;;;;5073216;28;20112;-68
2021/09/12 12:12:19;;;;;;;2.97;1.00;;;27.60;90.30;;;;;;5073253;28;20389;-68
2021/09/12 12:14:52;;;;;;;2.10;1.02;;;27.20;88.50;;;;;;5074592;28;20104;-67
2021/09/12 12:17:21;;;;;;;3.30;1.30;;;26.60;90.10;;;;;;5074569;28;20028;-67
2021/09/12 12:19:48;;;;;;;3.47;1.20;;;25.90;91.10;;;;;;5073127;28;20082;-67
2021/09/12 12:22:14;;;;;;;2.50;1.40;;;25.40;91.80;;;;;;5074472;28;20477;-67
2021/09/12 12:24:45;;;;;;;2.80;1.08;;;25.10;92.20;;;;;;5073601;28;20374;-67
2021/09/12 12:27:17;;;;;;;3.17;1.48;;;24.80;92.80;;;;;;5074208;28;20033;-67
2021/09/12 12:29:54;;;;;;;3.33;1.75;;;24.30;93.60;;;;;;5072560;28;20393;-67
2021/09/12 12:32:21;;;;;;;4.90;1.90;;;24.40;93.90;;;;;;5074674;28;20111;-67
2021/09/12 12:34:53;;;;;;;5.30;1.70;;;24.40;93.90;;;;;;5076389;28;20032;-67
2021/09/12 12:37:41;;;;;;;6.10;1.70;;;24.50;94.30;;;;;;5094679;28;20579;-67
2021/09/12 12:40:10;;;;;;;5.28;2.22;;;24.70;93.80;;;;;;5094390;28;20389;-69